Time;durP1;ratioP1;P1;durP2;ratioP2;P2;SDS_P1;SDS_P2;PMS_P1;PMS_P2;Temp;Humidity;BMP_temperature;BMP_pressure;BME280_temperature;BME280_humidity;BME280_pressure;Samples;Min_cycle;Max_cycle;Signal;HPM_P1;HPM_P2
2024/01/27 00:01:59;;;;;;;4.05;1.23;;;;;;;16.39;42.46;103461.50;16120555;19;130716;-74
2024/01/27 00:07:21;;;;;;;3.25;1.10;;;;;;;16.36;42.51;103459.13;16115926;19;131099;-74
2024/01/27 00:12:43;;;;;;;8.82;1.27;;;;;;;16.32;42.22;103464.97;16121483;19;129370;-74
2024/01/27 00:18:05;;;;;;;3.10;1.20;;;;;;;16.27;42.09;103458.22;16119678;19;132514;-74
2024/01/27 00:23:27;;;;;;;3.05;0.80;;;;;;;16.24;42.35;103458.56;16119353;19;129865;-74
2024/01/27 00:28:49;;;;;;;1.42;0.70;;;;;;;16.21;42.52;103456.13;16120914;19;129890;-74
2024/01/27 00:34:11;;;;;;;1.88;0.93;;;;;;;16.17;42.29;103452.84;16122626;19;129425;-74
2024/01/27 00:39:33;;;;;;;2.20;0.90;;;;;;;16.13;42.51;103459.72;16117756;19;130347;-74
2024/01/27 00:44:55;;;;;;;3.08;1.02;;;;;;;16.10;42.42;103452.63;16120222;19;129742;-74
2024/01/27 00:50:17;;;;;;;2.25;0.80;;;;;;;16.07;42.52;103452.09;16115526;19;130193;-74
2024/01/27 00:55:39;;;;;;;2.83;1.13;;;;;;;16.04;42.42;103446.91;16113486;19;130724;-74
2024/01/27 01:01:01;;;;;;;1.73;0.93;;;;;;;16.01;42.73;103460.00;16121236;19;130237;-72
2024/01/27 01:06:23;;;;;;;1.67;0.95;;;;;;;15.97;42.49;103450.34;16125385;19;133313;-73
2024/01/27 01:11:45;;;;;;;3.17;1.00;;;;;;;15.96;42.35;103456.03;16123440;19;132464;-74
2024/01/27 01:17:07;;;;;;;1.92;1.08;;;;;;;15.93;42.80;103448.94;16118007;19;130623;-74
2024/01/27 01:22:29;;;;;;;3.65;1.08;;;;;;;15.89;42.61;103466.88;16116406;19;130503;-74
2024/01/27 01:27:52;;;;;;;2.75;1.00;;;;;;;15.87;42.63;103468.94;16117862;19;130961;-74
2024/01/27 01:33:14;;;;;;;2.30;0.90;;;;;;;15.85;42.61;103465.50;16115643;19;129509;-74
2024/01/27 01:38:36;;;;;;;1.90;0.90;;;;;;;15.81;42.34;103464.06;16114838;19;129359;-74
2024/01/27 01:43:59;;;;;;;2.42;0.80;;;;;;;15.79;42.79;103464.25;16111516;19;129594;-74
2024/01/27 01:49:20;;;;;;;3.00;0.93;;;;;;;15.77;42.90;103473.72;16112003;19;129592;-74
2024/01/27 01:54:42;;;;;;;1.70;0.65;;;;;;;15.75;42.66;103481.31;16114422;19;130997;-74
2024/01/27 02:00:06;;;;;;;1.95;0.82;;;;;;;15.72;42.43;103465.03;16118786;19;130019;-74
2024/01/27 02:05:28;;;;;;;1.23;0.77;;;;;;;15.72;42.73;103467.81;16114257;19;130626;-74
2024/01/27 02:10:50;;;;;;;1.98;0.70;;;;;;;15.69;43.12;103472.63;16113217;19;131188;-74
2024/01/27 02:16:12;;;;;;;2.08;0.70;;;;;;;15.67;43.07;103474.66;16116034;19;129405;-74
2024/01/27 02:21:35;;;;;;;1.15;0.60;;;;;;;15.66;42.71;103459.13;16110881;19;129463;-74
2024/01/27 02:26:57;;;;;;;1.23;0.60;;;;;;;15.65;42.74;103464.84;16125767;19;129753;-74
2024/01/27 02:32:18;;;;;;;1.55;0.40;;;;;;;15.63;43.02;103472.41;16124657;19;129667;-74
2024/01/27 02:37:41;;;;;;;1.33;0.30;;;;;;;15.62;42.82;103477.06;16124311;19;130823;-74
2024/01/27 02:43:03;;;;;;;3.00;0.28;;;;;;;15.60;42.98;103476.38;16125924;19;130246;-74
2024/01/27 02:48:25;;;;;;;0.75;0.38;;;;;;;15.59;43.00;103471.88;16129399;19;129428;-74
2024/01/27 02:53:47;;;;;;;0.30;0.22;;;;;;;15.58;42.89;103480.28;16123547;19;130880;-74
2024/01/27 02:59:11;;;;;;;0.45;0.30;;;;;;;15.57;43.09;103479.44;16125987;19;130219;-74
2024/01/27 03:04:33;;;;;;;1.10;0.40;;;;;;;15.56;42.84;103486.00;16120562;19;131150;-74
2024/01/27 03:09:55;;;;;;;0.90;0.40;;;;;;;15.54;42.56;103490.78;16122673;19;129663;-75
2024/01/27 03:15:17;;;;;;;1.17;0.40;;;;;;;15.51;42.93;103491.13;16118965;19;130970;-75
2024/01/27 03:20:39;;;;;;;0.30;0.30;;;;;;;15.50;42.91;103492.16;16125322;19;129707;-74
2024/01/27 03:26:02;;;;;;;0.95;0.47;;;;;;;15.48;42.57;103485.94;16123626;19;129596;-74
2024/01/27 03:31:34;;;;;;;0.98;0.40;;;;;;;15.48;42.48;103480.44;16115119;19;131843;-74
2024/01/27 03:36:56;;;;;;;1.33;0.50;;;;;;;15.43;42.67;103486.44;16116759;19;130209;-74
2024/01/27 03:42:18;;;;;;;0.85;0.50;;;;;;;15.40;42.92;103473.81;16121322;19;129581;-74
2024/01/27 03:47:40;;;;;;;1.50;0.75;;;;;;;15.38;42.94;103483.28;16119861;19;130625;-74
2024/01/27 03:53:02;;;;;;;1.20;0.60;;;;;;;15.36;42.67;103466.03;16122985;19;129580;-74
2024/01/27 03:58:24;;;;;;;2.00;0.80;;;;;;;15.35;42.90;103472.56;16121607;19;129688;-74
2024/01/27 04:03:46;;;;;;;1.85;0.73;;;;;;;15.32;42.65;103473.75;16118190;19;132891;-74
2024/01/27 04:09:11;;;;;;;1.15;0.60;;;;;;;15.31;42.84;103493.25;16122402;19;130890;-74
2024/01/27 04:14:33;;;;;;;1.50;0.60;;;;;;;15.28;43.06;103491.66;16116955;19;130262;-74
2024/01/27 04:19:55;;;;;;;1.73;0.70;;;;;;;15.27;42.79;103489.91;16117062;19;129651;-74
2024/01/27 04:25:17;;;;;;;1.38;0.63;;;;;;;15.25;42.77;103489.22;16112763;19;131055;-74
2024/01/27 04:30:39;;;;;;;1.50;0.50;;;;;;;15.23;43.14;103500.41;16123477;19;130410;-72
2024/01/27 04:36:02;;;;;;;1.65;0.63;;;;;;;15.21;43.05;103491.44;16123657;19;129645;-74
2024/01/27 04:41:24;;;;;;;1.70;0.65;;;;;;;15.21;43.01;103490.56;16116450;19;130233;-74
2024/01/27 04:46:46;;;;;;;1.67;0.63;;;;;;;15.17;42.73;103490.03;16119065;19;131553;-74
2024/01/27 04:52:08;;;;;;;0.88;0.60;;;;;;;15.15;43.17;103489.31;16117073;19;130680;-74
2024/01/27 04:57:30;;;;;;;0.90;0.73;;;;;;;15.14;42.73;103489.50;16114514;19;129797;-74
2024/01/27 05:02:52;;;;;;;1.08;0.68;;;;;;;15.12;43.07;103486.88;16112338;19;130014;-75
2024/01/27 05:08:14;;;;;;;2.33;0.77;;;;;;;15.11;43.23;103478.78;16115377;19;130379;-74
2024/01/27 05:13:37;;;;;;;2.78;0.70;;;;;;;15.09;42.84;103482.56;16111707;19;130113;-75
2024/01/27 05:18:59;;;;;;;2.20;0.95;;;;;;;15.07;43.02;103494.78;16111403;19;131471;-74
2024/01/27 05:24:21;;;;;;;2.28;0.85;;;;;;;15.04;43.06;103495.94;16112287;19;129537;-74
2024/01/27 05:29:43;;;;;;;1.58;0.70;;;;;;;15.03;42.81;103491.44;16115827;19;129303;-74
2024/01/27 05:35:06;;;;;;;2.65;0.80;;;;;;;15.01;43.19;103501.78;16115971;19;130023;-75
2024/01/27 05:40:27;;;;;;;2.70;0.80;;;;;;;14.98;43.22;103491.06;16113154;19;130042;-74
2024/01/27 05:45:49;;;;;;;1.95;0.80;;;;;;;14.97;43.10;103486.59;16116732;19;130039;-75
2024/01/27 05:51:12;;;;;;;2.10;0.70;;;;;;;14.96;42.95;103484.84;16114346;19;129955;-75
2024/01/27 05:56:35;;;;;;;1.23;0.80;;;;;;;14.93;42.74;103472.25;16112901;19;130461;-74
2024/01/27 06:01:57;;;;;;;1.70;0.85;;;;;;;14.93;43.12;103482.41;16128329;19;131083;-74
2024/01/27 06:07:19;;;;;;;1.08;0.60;;;;;;;14.97;42.92;103496.72;16125110;19;131533;-74
2024/01/27 06:12:42;;;;;;;1.25;0.68;;;;;;;15.00;43.14;103489.03;16127073;19;131130;-74
2024/01/27 06:18:04;;;;;;;2.65;0.90;;;;;;;15.04;43.00;103498.69;16128365;19;130231;-74
2024/01/27 06:23:26;;;;;;;1.25;0.77;;;;;;;15.12;42.89;103502.56;16126711;19;132701;-74
2024/01/27 06:28:48;;;;;;;1.52;0.93;;;;;;;15.21;43.01;103499.69;16128978;19;131024;-74
2024/01/27 06:34:10;;;;;;;1.30;0.70;;;;;;;15.31;43.00;103502.38;16130633;19;131290;-74
2024/01/27 06:39:32;;;;;;;2.53;1.00;;;;;;;15.41;42.97;103513.31;16124328;19;131038;-74
2024/01/27 06:44:54;;;;;;;7.18;1.10;;;;;;;15.50;43.17;103511.47;16124005;19;130002;-82
2024/01/27 06:50:17;;;;;;;3.88;0.85;;;;;;;15.62;43.20;103523.09;16128956;19;130641;-78
2024/01/27 06:55:42;;;;;;;6.55;0.95;;;;;;;15.70;43.55;103526.78;16124828;19;129741;-77
2024/01/27 07:01:07;;;;;;;3.85;0.90;;;;;;;15.80;43.09;103528.59;16124124;19;130607;-79
2024/01/27 07:06:29;;;;;;;2.60;0.82;;;;;;;15.90;43.06;103512.78;16121477;19;130742;-77
2024/01/27 07:11:52;;;;;;;4.63;1.05;;;;;;;16.03;43.03;103497.66;16113962;19;130527;-79
2024/01/27 07:17:14;;;;;;;2.15;0.80;;;;;;;16.16;43.15;103511.84;16125284;19;129547;-77
2024/01/27 07:22:36;;;;;;;4.60;1.05;;;;;;;16.29;43.04;103523.31;16129406;19;131223;-78
2024/01/27 07:27:58;;;;;;;6.57;1.30;;;;;;;16.38;42.63;103515.91;16121488;19;130073;-75
2024/01/27 07:33:20;;;;;;;7.93;1.50;;;;;;;16.44;41.91;103525.44;16131931;19;129511;-80
2024/01/27 07:38:42;;;;;;;5.85;1.40;;;;;;;16.50;41.73;103513.69;16138276;19;130906;-81
2024/01/27 07:44:12;;;;;;;10.55;1.90;;;;;;;16.65;41.51;103505.63;16142083;19;131731;-83
2024/01/27 07:49:35;;;;;;;9.38;1.52;;;;;;;16.80;42.21;103503.09;16153984;19;129951;-83
2024/01/27 07:54:57;;;;;;;6.45;1.98;;;;;;;17.00;42.09;103509.16;16177374;19;130067;-82
2024/01/27 08:00:19;;;;;;;7.32;1.70;;;;;;;17.29;41.99;103517.97;16194487;19;129186;-81
2024/01/27 08:05:41;;;;;;;11.27;1.75;;;;;;;17.64;41.58;103511.22;16151280;19;129409;-82
2024/01/27 08:11:03;;;;;;;19.38;2.60;;;;;;;18.07;41.06;103510.91;16131969;19;130295;-79
2024/01/27 08:16:28;;;;;;;13.63;2.00;;;;;;;18.52;41.12;103511.25;16119746;19;131353;-84
2024/01/27 08:21:51;;;;;;;10.77;1.70;;;;;;;19.05;40.54;103505.81;16121099;19;132748;-84
2024/01/27 08:27:13;;;;;;;5.35;1.40;;;;;;;19.62;39.78;103525.78;16131908;19;130114;-82
2024/01/27 08:32:34;;;;;;;11.70;2.58;;;;;;;20.19;39.06;103520.63;16128432;19;129914;-82
2024/01/27 08:37:57;;;;;;;6.82;1.63;;;;;;;20.71;38.30;103512.25;16126631;19;129627;-85
2024/01/27 08:43:19;;;;;;;8.32;1.67;;;;;;;20.97;37.74;103520.06;16129434;19;129368;-83
2024/01/27 08:48:41;;;;;;;6.72;1.50;;;;;;;21.39;37.44;103531.34;16133540;19;129387;-86
2024/01/27 08:54:03;;;;;;;6.72;1.77;;;;;;;21.35;37.35;103518.88;16131048;19;129488;-87
2024/01/27 08:59:25;;;;;;;12.45;2.60;;;;;;;21.23;37.25;103524.16;16126941;19;131648;-83
2024/01/27 09:04:47;;;;;;;9.48;2.10;;;;;;;21.44;37.00;103528.78;16120521;19;131036;-74
2024/01/27 09:10:12;;;;;;;9.55;2.08;;;;;;;21.56;36.43;103515.22;16133719;19;130381;-76
2024/01/27 09:15:34;;;;;;;8.70;2.13;;;;;;;22.01;36.18;103545.50;16139660;19;130377;-75
2024/01/27 09:20:56;;;;;;;5.18;1.73;;;;;;;22.59;35.81;103538.69;16135800;19;129561;-77
2024/01/27 09:26:18;;;;;;;12.73;1.70;;;;;;;23.20;35.03;103537.72;16137394;19;130864;-74
2024/01/27 09:31:41;;;;;;;6.32;2.47;;;;;;;23.80;34.22;103547.16;16135734;19;130678;-75
2024/01/27 09:37:03;;;;;;;6.53;1.92;;;;;;;24.42;33.38;103538.38;16146240;19;129921;-75
2024/01/27 09:42:25;;;;;;;15.23;2.28;;;;;;;25.07;32.48;103556.97;16148414;19;130365;-71
2024/01/27 09:47:47;;;;;;;6.68;1.77;;;;;;;25.61;32.11;103573.31;16147883;19;130346;-73
2024/01/27 09:53:10;;;;;;;6.88;1.75;;;;;;;26.05;31.29;103562.94;16151449;19;129666;-72
2024/01/27 09:58:32;;;;;;;6.10;1.92;;;;;;;26.43;30.94;103572.22;16151937;19;129170;-74
2024/01/27 10:03:55;;;;;;;13.10;2.13;;;;;;;26.76;30.11;103567.25;16141646;19;129079;-73
2024/01/27 10:09:18;;;;;;;8.80;2.77;;;;;;;27.01;30.20;103576.38;16130159;19;130999;-74
2024/01/27 10:14:41;;;;;;;7.13;2.20;;;;;;;27.25;29.69;103575.59;16129158;19;130369;-75
2024/01/27 10:20:05;;;;;;;9.80;1.83;;;;;;;27.51;29.52;103577.09;16134087;19;129145;-76
2024/01/27 10:25:27;;;;;;;7.85;2.30;;;;;;;27.73;28.92;103587.72;16131585;19;129454;-76
2024/01/27 10:30:49;;;;;;;6.85;1.73;;;;;;;27.83;28.71;103582.34;16133757;19;132194;-79
2024/01/27 10:36:11;;;;;;;4.55;1.70;;;;;;;27.80;28.82;103594.09;16140071;19;130786;-81
2024/01/27 10:41:35;;;;;;;6.00;1.52;;;;;;;27.72;28.82;103586.00;16130600;19;129750;-75
2024/01/27 10:47:01;;;;;;;;;;;;;;;27.40;28.87;103577.94;16130243;19;130969;-74
2024/01/27 10:52:34;;;;;;;9.63;2.00;;;;;;;26.99;29.59;103577.72;16128463;19;130470;-74
2024/01/27 10:57:59;;;;;;;5.95;1.52;;;;;;;26.53;29.67;103571.66;16121063;19;131313;-77
2024/01/27 11:03:21;;;;;;;;;;;;;;;26.13;30.07;103574.94;16129784;19;130637;-77
2024/01/27 11:08:43;;;;;;;11.82;2.38;;;;;;;25.84;30.20;103566.22;16124684;19;131757;-76
2024/01/27 11:14:06;;;;;;;6.65;1.90;;;;;;;25.60;30.43;103566.03;16129461;19;129218;-77
2024/01/27 11:19:28;;;;;;;6.43;2.33;;;;;;;25.44;30.58;103562.69;16127381;19;129714;-74
2024/01/27 11:24:50;;;;;;;6.32;1.80;;;;;;;25.44;30.71;103545.88;16129506;19;129805;-75
2024/01/27 11:30:35;;;;;;;12.02;3.10;;;;;;;25.62;30.26;103552.63;16119323;19;132018;-74
2024/01/27 11:36:04;;;;;;;7.43;2.07;;;;;;;25.98;29.80;103550.94;16135036;19;130375;-75
2024/01/27 11:41:28;;;;;;;7.82;2.00;;;;;;;26.56;28.99;103552.38;16127274;19;129615;-72
2024/01/27 11:46:51;;;;;;;10.03;2.50;;;;;;;26.99;28.39;103553.28;16129982;19;129961;-74
2024/01/27 11:52:13;;;;;;;15.77;2.75;;;;;;;27.17;27.95;103545.88;16132573;19;129922;-71
2024/01/27 11:57:35;;;;;;;4.53;2.25;;;;;;;27.29;27.97;103540.25;16168577;19;131283;-71
2024/01/27 12:02:57;;;;;;;5.90;1.80;;;;;;;27.12;27.71;103534.50;16145541;19;129661;-71
2024/01/27 12:08:20;;;;;;;9.43;1.95;;;;;;;27.20;28.01;103536.97;16151531;19;129432;-73
2024/01/27 12:13:41;;;;;;;6.53;2.20;;;;;;;27.22;27.71;103526.31;16131649;19;130228;-74
2024/01/27 12:19:03;;;;;;;6.57;1.95;;;;;;;27.43;27.91;103522.09;16121745;19;130110;-75
2024/01/27 12:24:26;;;;;;;6.82;1.88;;;;;;;27.44;27.81;103497.66;16121965;19;131232;-76
2024/01/27 12:29:49;;;;;;;11.35;2.10;;;;;;;27.28;28.17;103508.50;16123395;19;129554;-71
2024/01/27 12:35:12;;;;;;;4.80;1.40;;;;;;;26.84;28.61;103507.94;16122101;19;129586;-75
2024/01/27 12:40:34;;;;;;;11.80;2.38;;;;;;;26.34;28.98;103504.31;16124780;19;130274;-74
2024/01/27 12:45:56;;;;;;;8.75;1.77;;;;;;;25.99;29.50;103504.97;16121141;19;131308;-78
2024/01/27 12:51:18;;;;;;;13.93;2.28;;;;;;;25.86;29.46;103491.09;16121412;19;129597;-75
2024/01/27 12:56:40;;;;;;;4.55;1.70;;;;;;;25.84;29.72;103482.09;16117819;19;129400;-75
2024/01/27 13:02:03;;;;;;;8.15;2.08;;;;;;;25.84;29.63;103482.09;16118463;19;130143;-74
2024/01/27 13:07:24;;;;;;;8.13;2.47;;;;;;;25.72;28.81;103463.25;16119214;19;130792;-76
2024/01/27 13:12:46;;;;;;;10.30;1.98;;;;;;;25.49;29.11;103444.28;16121652;19;129582;-77
2024/01/27 13:18:10;;;;;;;7.47;1.95;;;;;;;25.09;29.48;103444.69;16123908;19;129590;-77
2024/01/27 13:23:32;;;;;;;6.72;1.70;;;;;;;24.63;29.96;103439.22;16120990;19;129650;-77
2024/01/27 13:28:54;;;;;;;7.90;1.60;;;;;;;24.33;30.08;103439.00;16121461;19;130643;-77
2024/01/27 13:34:16;;;;;;;9.57;1.67;;;;;;;24.04;30.29;103444.06;16120145;19;129471;-77
2024/01/27 13:39:38;;;;;;;6.03;1.70;;;;;;;23.76;30.59;103448.94;16113288;19;130440;-77
2024/01/27 13:45:00;;;;;;;7.90;1.50;;;;;;;23.50;30.96;103435.88;16114896;19;131303;-77
2024/01/27 13:50:22;;;;;;;7.13;1.23;;;;;;;23.23;31.51;103435.91;16117483;19;129319;-77
2024/01/27 13:55:45;;;;;;;4.75;1.88;;;;;;;23.02;31.95;103440.66;16118199;19;129806;-77
2024/01/27 14:01:08;;;;;;;4.88;1.55;;;;;;;22.81;32.40;103438.03;16119603;19;129644;-78
2024/01/27 14:06:30;;;;;;;5.93;1.52;;;;;;;22.68;32.42;103439.75;16118655;19;129706;-77
2024/01/27 14:11:52;;;;;;;6.07;1.45;;;;;;;22.64;32.88;103438.47;16116719;19;129630;-78
2024/01/27 14:17:14;;;;;;;7.30;1.40;;;;;;;22.68;32.86;103438.91;16116413;19;129333;-76
2024/01/27 14:22:36;;;;;;;6.35;1.80;;;;;;;22.68;31.92;103436.13;16131675;19;129453;-76
2024/01/27 14:27:58;;;;;;;9.02;1.50;;;;;;;22.69;32.04;103432.25;16131638;19;129559;-81
2024/01/27 14:33:20;;;;;;;7.00;1.83;;;;;;;22.61;31.34;103430.53;16134210;19;131601;-77
2024/01/27 14:38:43;;;;;;;9.60;1.67;;;;;;;22.51;31.11;103432.88;16131098;19;129319;-77
2024/01/27 14:44:05;;;;;;;5.55;1.30;;;;;;;22.41;31.32;103434.13;16138134;19;131176;-77
2024/01/27 14:49:28;;;;;;;6.03;1.52;;;;;;;22.29;31.27;103427.44;16131475;19;129633;-77
2024/01/27 14:54:50;;;;;;;11.23;1.60;;;;;;;22.18;31.54;103422.47;16129070;19;129812;-77
2024/01/27 15:00:14;;;;;;;4.82;1.10;;;;;;;22.08;31.78;103420.94;16129590;19;129464;-77
2024/01/27 15:05:40;;;;;;;3.95;1.15;;;;;;;21.96;32.00;103423.50;16126459;19;129572;-70
2024/01/27 15:11:02;;;;;;;8.32;1.70;;;;;;;21.79;32.01;103422.97;16126595;19;132001;-76
2024/01/27 15:16:26;;;;;;;13.55;1.90;;;;;;;21.65;31.89;103424.00;16124712;19;129316;-71
2024/01/27 15:21:48;;;;;;;7.82;1.58;;;;;;;21.46;32.23;103409.69;16125664;19;132790;-72
2024/01/27 15:27:10;;;;;;;15.40;2.47;;;;;;;21.29;30.75;103419.47;16125773;19;129603;-79
2024/01/27 15:32:33;;;;;;;17.42;2.72;;;;;;;21.04;29.89;103417.13;16121808;19;132166;-74
2024/01/27 15:37:55;;;;;;;18.05;2.22;;;;;;;20.83;30.34;103413.31;16128660;19;130510;-78
2024/01/27 15:43:16;;;;;;;16.95;2.88;;;;;;;20.68;30.54;103407.81;16128827;19;129370;-79
2024/01/27 15:48:38;;;;;;;19.98;2.38;;;;;;;20.55;31.16;103397.44;16127228;19;130779;-80
2024/01/27 15:54:00;;;;;;;14.60;2.20;;;;;;;20.44;30.98;103397.94;16127892;19;129527;-77
2024/01/27 15:59:23;;;;;;;13.60;2.10;;;;;;;20.37;31.09;103388.69;16129586;19;129847;-80
2024/01/27 16:04:45;;;;;;;7.38;1.98;;;;;;;20.36;31.87;103395.31;16128138;19;130790;-81
2024/01/27 16:10:07;;;;;;;9.27;2.25;;;;;;;20.31;31.39;103383.94;16132228;19;130250;-85
2024/01/27 16:15:29;;;;;;;15.40;3.15;;;;;;;20.22;30.80;103384.03;16127106;19;130838;-74
2024/01/27 16:20:53;;;;;;;17.30;3.75;;;;;;;19.91;28.83;103393.50;16126471;19;129910;-77
2024/01/27 16:26:18;;;;;;;26.17;3.90;;;;;;;19.68;29.53;103402.84;16122035;19;129587;-76
2024/01/27 16:31:40;;;;;;;14.25;3.60;;;;;;;19.63;31.64;103397.00;16120276;19;130005;-75
2024/01/27 16:37:02;;;;;;;10.23;3.00;;;;;;;19.63;32.39;103394.22;16124369;19;129897;-75
2024/01/27 16:42:25;;;;;;;20.10;3.22;;;;;;;19.64;33.27;103387.59;16119327;19;129768;-72
2024/01/27 16:47:47;;;;;;;10.88;2.67;;;;;;;19.66;33.58;103385.50;16116065;19;129448;-74
2024/01/27 16:53:10;;;;;;;15.77;3.60;;;;;;;19.71;34.42;103392.38;16122152;19;130259;-74
2024/01/27 16:58:32;;;;;;;13.32;2.60;;;;;;;19.73;35.01;103376.38;16118603;19;129920;-74
2024/01/27 17:03:54;;;;;;;10.95;2.15;;;;;;;19.71;35.04;103382.13;16116260;19;129437;-72
2024/01/27 17:09:16;;;;;;;12.95;2.83;;;;;;;19.69;37.22;103379.53;16118870;19;129580;-73
2024/01/27 17:14:40;;;;;;;14.32;2.67;;;;;;;19.70;38.01;103388.75;16119335;19;131020;-73
2024/01/27 17:20:03;;;;;;;11.35;2.53;;;;;;;19.69;37.44;103392.56;16109965;19;130414;-73
2024/01/27 17:25:25;;;;;;;12.02;2.85;;;;;;;19.65;37.80;103392.09;16114746;19;129368;-73
2024/01/27 17:30:47;;;;;;;9.90;2.40;;;;;;;19.61;37.70;103390.75;16115218;19;129868;-73
2024/01/27 17:36:09;;;;;;;10.63;2.10;;;;;;;19.58;37.56;103380.03;16113619;19;130894;-73
2024/01/27 17:41:31;;;;;;;7.22;1.95;;;;;;;19.54;37.81;103378.72;16110535;19;134801;-78
2024/01/27 17:46:53;;;;;;;10.35;2.10;;;;;;;19.48;37.74;103385.03;16109996;19;131649;-79
2024/01/27 17:52:15;;;;;;;8.73;2.03;;;;;;;19.41;37.15;103393.25;16116429;19;129675;-76
2024/01/27 17:57:37;;;;;;;5.80;2.17;;;;;;;19.35;37.55;103383.78;16132681;19;129466;-79
2024/01/27 18:02:59;;;;;;;18.30;2.58;;;;;;;19.30;37.29;103389.06;16116779;19;130346;-67
2024/01/27 18:08:21;;;;;;;15.15;2.40;;;;;;;19.27;38.15;103392.22;16123421;19;129715;-72
2024/01/27 18:13:46;;;;;;;20.85;3.33;;;;;;;19.26;37.87;103387.72;16128444;19;129366;-76
2024/01/27 18:19:08;;;;;;;24.60;3.03;;;;;;;19.23;38.51;103382.53;16126579;19;131484;-74
2024/01/27 18:24:30;;;;;;;16.92;2.80;;;;;;;19.21;38.75;103384.63;16127111;19;130481;-76
2024/01/27 18:29:52;;;;;;;14.65;2.88;;;;;;;19.24;38.92;103384.25;16120221;19;130382;-73
2024/01/27 18:35:14;;;;;;;15.75;2.20;;;;;;;19.31;39.25;103378.81;16121864;19;129750;-77
2024/01/27 18:40:37;;;;;;;21.70;2.22;;;;;;;19.43;39.93;103377.28;16121044;19;131080;-74
2024/01/27 18:46:00;;;;;;;18.92;2.00;;;;;;;19.55;39.79;103377.66;16124677;19;130979;-79
2024/01/27 18:51:22;;;;;;;14.07;2.10;;;;;;;19.69;39.97;103365.66;16124894;19;130956;-77
2024/01/27 18:56:45;;;;;;;20.55;2.63;;;;;;;19.80;40.33;103366.22;16126056;19;129698;-76
2024/01/27 19:02:09;;;;;;;36.25;2.90;;;;;;;19.90;40.87;103365.91;16124306;19;130879;-79
2024/01/27 19:07:31;;;;;;;23.50;2.60;;;;;;;19.95;40.95;103357.84;16127398;19;131374;-74
2024/01/27 19:12:53;;;;;;;28.50;2.20;;;;;;;19.95;41.40;103358.69;16121372;19;129784;-82
2024/01/27 19:18:15;;;;;;;17.00;2.75;;;;;;;19.90;41.50;103355.66;16121515;19;130514;-86
2024/01/27 19:23:37;;;;;;;18.15;2.70;;;;;;;19.85;41.95;103347.03;16123815;19;130600;-85
2024/01/27 19:28:59;;;;;;;25.75;2.72;;;;;;;19.76;40.91;103349.06;16137226;19;129759;-79
2024/01/27 19:34:21;;;;;;;22.17;2.70;;;;;;;19.68;40.14;103343.63;16183336;19;131296;-87
2024/01/27 19:39:43;;;;;;;10.27;2.55;;;;;;;19.63;40.31;103338.69;16186598;19;129484;-88
2024/01/27 19:45:07;;;;;;;16.00;2.90;;;;;;;19.55;40.33;103335.13;16179895;19;129457;-84
2024/01/27 19:50:29;;;;;;;11.80;2.40;;;;;;;19.52;40.44;103336.41;16182974;19;130008;-82
2024/01/27 19:55:51;;;;;;;19.58;2.30;;;;;;;19.45;40.59;103324.31;16183742;19;128978;-84
2024/01/27 20:01:17;;;;;;;8.00;2.00;;;;;;;19.43;40.40;103323.69;16186558;19;129690;-79
2024/01/27 20:06:39;;;;;;;15.02;2.28;;;;;;;19.41;40.63;103325.78;16176713;19;130010;-81
2024/01/27 20:12:01;;;;;;;9.95;2.28;;;;;;;19.38;40.60;103327.88;16190652;19;129392;-84
2024/01/27 20:17:23;;;;;;;15.18;2.20;;;;;;;19.37;40.73;103326.16;16187198;19;128961;-80
2024/01/27 20:22:45;;;;;;;12.00;1.80;;;;;;;19.36;40.66;103327.22;16189022;19;129789;-78
2024/01/27 20:28:07;;;;;;;11.35;1.90;;;;;;;19.35;41.11;103335.75;16188144;19;130286;-80
2024/01/27 20:33:29;;;;;;;12.80;2.00;;;;;;;19.34;40.76;103340.41;16186585;19;129083;-84
2024/01/27 20:39:06;;;;;;;13.55;2.13;;;;;;;19.33;41.19;103340.63;16188725;19;129317;-79
2024/01/27 20:44:28;;;;;;;11.70;2.10;;;;;;;19.33;41.41;103337.84;16183508;19;129597;-84
2024/01/27 20:49:50;;;;;;;15.10;1.77;;;;;;;19.33;41.80;103327.59;16177851;19;130345;-75
2024/01/27 20:55:12;;;;;;;7.28;1.77;;;;;;;19.30;41.63;103335.44;16178345;19;129799;-76
2024/01/27 21:00:34;;;;;;;12.88;1.92;;;;;;;19.28;41.94;103320.91;16181100;19;129718;-80
2024/01/27 21:05:56;;;;;;;12.48;2.28;;;;;;;19.27;42.09;103325.59;16191289;19;129230;-79
2024/01/27 21:11:19;;;;;;;9.10;1.75;;;;;;;19.24;41.89;103317.66;16191199;19;130492;-81
2024/01/27 21:16:41;;;;;;;6.10;2.10;;;;;;;19.21;42.26;103324.47;16194990;19;129613;-79
2024/01/27 21:22:03;;;;;;;10.10;1.80;;;;;;;19.20;42.48;103302.44;16185233;19;129568;-80
2024/01/27 21:27:25;;;;;;;12.32;1.85;;;;;;;19.17;42.50;103291.72;16166359;19;130366;-79
2024/01/27 21:32:47;;;;;;;9.05;1.85;;;;;;;19.16;42.62;103278.88;16177118;19;129901;-77
2024/01/27 21:38:09;;;;;;;11.75;2.25;;;;;;;19.15;42.56;103291.03;16173408;19;130672;-80
2024/01/27 21:43:31;;;;;;;14.07;2.55;;;;;;;19.12;43.09;103285.88;16170072;19;134231;-78
2024/01/27 22:11:21;;;;;;;7.68;2.08;;;;;;;18.75;42.10;103261.66;16087136;19;134049;-87
2024/01/27 22:16:43;;;;;;;9.60;2.28;;;;;;;18.67;42.07;103259.00;16115412;19;130483;-82
2024/01/27 22:22:05;;;;;;;6.63;1.98;;;;;;;18.59;41.53;103250.72;16130538;19;133883;-79
2024/01/27 22:27:27;;;;;;;5.85;2.08;;;;;;;18.53;41.58;103237.66;16130759;19;129454;-79
2024/01/27 22:32:49;;;;;;;9.68;1.90;;;;;;;18.46;41.65;103232.00;16118239;19;131674;-80
2024/01/27 22:38:11;;;;;;;6.82;2.03;;;;;;;18.38;41.80;103216.28;16117212;19;133302;-80
2024/01/27 22:43:33;;;;;;;6.15;2.03;;;;;;;18.30;41.62;103221.91;16129937;19;130414;-80
2024/01/27 22:48:55;;;;;;;7.45;2.00;;;;;;;18.22;41.81;103213.66;16129863;19;129515;-80
2024/01/27 22:54:17;;;;;;;9.95;2.08;;;;;;;18.17;42.00;103200.38;16130657;19;129518;-80
2024/01/27 22:59:39;;;;;;;7.75;1.85;;;;;;;18.10;42.16;103207.72;16119130;19;129531;-81
2024/01/27 23:05:01;;;;;;;5.88;2.00;;;;;;;18.06;41.93;103203.59;16129530;19;130958;-80
2024/01/27 23:10:23;;;;;;;6.85;1.70;;;;;;;17.99;42.39;103206.25;16130658;19;129805;-80
2024/01/27 23:15:45;;;;;;;5.50;1.67;;;;;;;17.95;42.34;103202.16;16130761;19;129513;-80
2024/01/27 23:21:07;;;;;;;5.55;1.90;;;;;;;17.89;42.46;103191.81;16137009;19;132022;-79
2024/01/27 23:26:29;;;;;;;5.65;1.83;;;;;;;17.83;42.14;103197.06;16149063;19;131132;-80
2024/01/27 23:31:51;;;;;;;3.05;1.40;;;;;;;17.77;42.60;103186.69;16147038;19;133221;-80
2024/01/27 23:37:13;;;;;;;4.38;1.58;;;;;;;17.73;42.19;103179.81;16139149;19;130628;-80
2024/01/27 23:42:40;;;;;;;3.25;1.48;;;;;;;17.69;42.70;103181.25;16145597;19;129366;-80
2024/01/27 23:48:03;;;;;;;3.22;1.40;;;;;;;17.63;42.62;103165.34;16139613;19;129566;-80
2024/01/27 23:53:28;;;;;;;3.30;1.70;;;;;;;17.60;42.63;103166.59;16141079;19;129488;-81
2024/01/27 23:58:50;;;;;;;1.92;1.33;;;;;;;17.55;42.30;103163.50;16138048;19;130508;-82
